Time;durP1;ratioP1;P1;durP2;ratioP2;P2;SDS_P1;SDS_P2;PMS_P1;PMS_P2;Temp;Humidity;BMP_temperature;BMP_pressure;BME280_temperature;BME280_humidity;BME280_pressure;Samples;Min_cycle;Max_cycle;Signal;HPM_P1;HPM_P2
2022/11/08 00:02:20;;;;;;;19.90;3.88;;;12.90;99.90;;;;;;4953909;28;20043;-74
2022/11/08 00:04:46;;;;;;;10.73;3.67;;;12.80;99.90;;;;;;4931449;29;20202;-72
2022/11/08 00:15:24;;;;;;;14.57;3.78;;;12.90;99.90;;;;;;4946762;28;20059;-72
2022/11/08 00:17:50;;;;;;;12.38;2.60;;;12.80;99.90;;;;;;4947524;29;20046;-72
2022/11/08 00:20:16;;;;;;;9.43;2.85;;;12.90;99.90;;;;;;4963249;28;20091;-72
2022/11/08 00:22:42;;;;;;;14.50;2.63;;;13.00;99.90;;;;;;4945590;28;20050;-74
2022/11/08 00:25:08;;;;;;;12.20;3.35;;;12.90;99.90;;;;;;4950915;28;20483;-72
2022/11/08 00:27:34;;;;;;;11.75;2.80;;;12.80;99.90;;;;;;4944639;28;20043;-73
2022/11/08 00:30:00;;;;;;;15.38;2.70;;;12.90;99.90;;;;;;4949655;29;20501;-73
2022/11/08 00:32:26;;;;;;;14.52;3.38;;;12.90;99.90;;;;;;4930071;28;20406;-72
2022/11/08 00:34:52;;;;;;;14.77;3.20;;;13.00;99.90;;;;;;4922509;29;20051;-75
2022/11/08 00:37:19;;;;;;;19.38;3.90;;;12.90;99.90;;;;;;4954544;28;20122;-74
2022/11/08 00:39:45;;;;;;;11.68;3.92;;;12.80;99.90;;;;;;4953557;28;20043;-74
2022/11/08 00:42:11;;;;;;;12.98;2.45;;;12.90;99.90;;;;;;4961615;28;20061;-73
2022/11/08 00:44:37;;;;;;;11.20;3.33;;;13.00;99.90;;;;;;4948833;28;20577;-73
2022/11/08 00:47:03;;;;;;;9.43;2.53;;;13.00;99.90;;;;;;4929572;28;20178;-73
2022/11/08 00:49:29;;;;;;;10.60;3.08;;;12.90;99.90;;;;;;4947843;28;20138;-72
2022/11/08 00:51:55;;;;;;;14.23;3.42;;;13.00;99.90;;;;;;4946489;28;20035;-74
2022/11/08 00:54:21;;;;;;;13.77;2.35;;;12.90;99.90;;;;;;4921655;29;20058;-73
2022/11/08 00:56:48;;;;;;;10.25;2.42;;;12.80;99.90;;;;;;4930043;29;20137;-74
2022/11/08 00:59:16;;;;;;;11.60;2.75;;;12.90;99.90;;;;;;4954387;28;20046;-72
2022/11/08 01:01:42;;;;;;;12.00;3.38;;;12.90;99.90;;;;;;4947954;29;20059;-75
2022/11/08 01:04:09;;;;;;;9.10;3.00;;;12.90;99.90;;;;;;4946930;28;20118;-74
2022/11/08 01:06:35;;;;;;;8.35;2.83;;;12.80;99.90;;;;;;4924781;29;20047;-73
2022/11/08 01:09:01;;;;;;;10.00;3.80;;;12.80;99.90;;;;;;4936044;29;20051;-75
2022/11/08 01:11:27;;;;;;;8.13;2.28;;;12.90;99.90;;;;;;4947264;28;20071;-76
2022/11/08 01:13:56;;;;;;;16.73;3.72;;;12.70;99.90;;;;;;4948403;29;20071;-74
2022/11/08 01:16:24;;;;;;;10.10;3.72;;;12.80;99.90;;;;;;4928425;28;20059;-74
2022/11/08 01:18:52;;;;;;;11.27;2.22;;;12.70;99.90;;;;;;4947403;28;20525;-73
2022/11/08 01:21:19;;;;;;;16.52;3.97;;;12.80;99.90;;;;;;4941567;28;20098;-72
2022/11/08 01:23:45;;;;;;;17.40;4.30;;;12.60;99.90;;;;;;4942485;28;20047;-73
2022/11/08 01:26:26;;;;;;;16.65;3.75;;;12.60;99.90;;;;;;4947537;28;20047;-73
2022/11/08 01:28:52;;;;;;;9.60;2.78;;;12.60;99.90;;;;;;4951455;28;20051;-73
2022/11/08 01:31:21;;;;;;;8.80;2.83;;;12.60;99.90;;;;;;4948155;28;20043;-73
2022/11/08 01:33:47;;;;;;;9.70;2.80;;;12.60;99.90;;;;;;4946248;28;20051;-75
2022/11/08 01:36:15;;;;;;;7.68;2.65;;;12.60;99.90;;;;;;4950398;28;20043;-72
2022/11/08 01:38:41;;;;;;;9.55;2.72;;;12.60;99.90;;;;;;4947574;28;20126;-73
2022/11/08 01:41:10;;;;;;;12.88;3.35;;;12.50;99.90;;;;;;4931092;29;20058;-74
2022/11/08 01:43:44;;;;;;;8.70;2.38;;;12.50;99.90;;;;;;4947779;28;20372;-73
2022/11/08 01:46:19;;;;;;;33.88;5.40;;;12.50;99.90;;;;;;4952917;28;20051;-75
2022/11/08 01:48:53;;;;;;;11.88;2.67;;;12.50;99.90;;;;;;4934892;29;20051;-75
2022/11/08 01:51:23;;;;;;;11.77;3.08;;;12.50;99.90;;;;;;4929771;28;20047;-75
2022/11/08 01:53:50;;;;;;;11.30;3.28;;;12.50;99.90;;;;;;4942277;28;20090;-74
2022/11/08 01:56:16;;;;;;;7.07;1.60;;;12.40;99.90;;;;;;4950367;28;20079;-74
2022/11/08 01:58:45;;;;;;;11.05;4.25;;;12.40;99.90;;;;;;4948399;28;20069;-74
2022/11/08 02:01:11;;;;;;;12.73;3.20;;;12.50;99.90;;;;;;4947843;29;20102;-74
2022/11/08 02:03:39;;;;;;;9.02;3.13;;;12.40;99.90;;;;;;4947456;28;20059;-73
2022/11/08 02:06:05;;;;;;;9.07;2.13;;;12.40;99.90;;;;;;4950324;28;20051;-75
2022/11/08 02:08:41;;;;;;;7.72;2.80;;;12.40;99.90;;;;;;4949119;28;20047;-75
2022/11/08 02:11:11;;;;;;;7.93;2.78;;;12.40;99.90;;;;;;4947139;28;20098;-75
2022/11/08 02:13:37;;;;;;;8.35;3.40;;;12.30;99.90;;;;;;4960793;28;20046;-74
2022/11/08 02:16:11;;;;;;;13.15;4.10;;;12.40;99.90;;;;;;4952592;28;20093;-77
2022/11/08 02:18:38;;;;;;;12.63;2.75;;;12.30;99.90;;;;;;4946785;28;20119;-74
2022/11/08 02:21:20;;;;;;;17.25;3.67;;;12.30;99.90;;;;;;4943290;28;20509;-74
2022/11/08 02:23:47;;;;;;;8.05;3.22;;;12.20;99.90;;;;;;4940905;28;20058;-73
2022/11/08 02:26:15;;;;;;;9.40;3.25;;;12.20;99.90;;;;;;4948358;28;20090;-76
2022/11/08 02:28:45;;;;;;;12.00;2.47;;;12.20;99.90;;;;;;4915218;29;20043;-73
2022/11/08 02:31:13;;;;;;;11.68;2.08;;;12.10;99.90;;;;;;4948786;28;20367;-74
2022/11/08 02:33:39;;;;;;;12.07;2.80;;;12.10;99.90;;;;;;4946994;28;20075;-74
2022/11/08 02:36:06;;;;;;;10.90;2.60;;;12.00;99.90;;;;;;4962524;28;20054;-74
2022/11/08 02:38:37;;;;;;;8.57;2.30;;;12.00;99.90;;;;;;4962428;28;20123;-74
2022/11/08 02:41:03;;;;;;;8.63;2.78;;;12.10;99.90;;;;;;4929603;29;20048;-76
2022/11/08 02:43:29;;;;;;;10.85;3.22;;;12.10;99.90;;;;;;4946102;28;20490;-75
2022/11/08 02:45:57;;;;;;;11.27;2.38;;;12.00;99.90;;;;;;4946880;28;20050;-73
2022/11/08 02:48:23;;;;;;;11.40;2.40;;;12.00;99.90;;;;;;4929940;29;20085;-73
2022/11/08 02:50:48;;;;;;;18.17;3.83;;;11.90;99.90;;;;;;4930469;29;20051;-73
2022/11/08 02:53:14;;;;;;;10.82;2.47;;;12.00;99.90;;;;;;4944502;28;20051;-74
2022/11/08 02:55:40;;;;;;;9.18;2.00;;;12.00;99.90;;;;;;4933594;28;20103;-73
2022/11/08 02:58:06;;;;;;;7.90;2.10;;;11.90;99.90;;;;;;4945901;28;20085;-74
2022/11/08 03:00:32;;;;;;;8.88;1.75;;;11.80;99.90;;;;;;4947975;28;20047;-73
2022/11/08 03:02:58;;;;;;;14.80;5.05;;;11.80;99.90;;;;;;4949991;28;20471;-75
2022/11/08 03:05:25;;;;;;;9.20;1.88;;;11.90;99.90;;;;;;4951445;28;20039;-74
2022/11/08 03:07:52;;;;;;;10.55;2.70;;;11.70;99.90;;;;;;4933618;28;20438;-73
2022/11/08 03:10:19;;;;;;;8.75;2.15;;;11.80;99.90;;;;;;4950458;28;20043;-74
2022/11/08 03:12:44;;;;;;;9.45;2.03;;;11.70;99.90;;;;;;4946606;28;20110;-74
2022/11/08 03:15:12;;;;;;;15.25;5.18;;;11.70;99.90;;;;;;4948151;28;20134;-73
2022/11/08 03:17:38;;;;;;;28.75;4.28;;;11.70;99.90;;;;;;4936410;29;20070;-74
2022/11/08 03:20:04;;;;;;;10.98;2.53;;;11.70;99.90;;;;;;4964146;28;20487;-73
2022/11/08 03:22:30;;;;;;;11.48;3.38;;;11.70;99.90;;;;;;4935063;28;20087;-73
2022/11/08 03:24:56;;;;;;;12.80;2.40;;;11.50;99.90;;;;;;4932823;29;20600;-73
2022/11/08 03:27:22;;;;;;;8.75;2.00;;;11.60;99.90;;;;;;4930173;29;20051;-73
2022/11/08 03:29:47;;;;;;;10.75;3.08;;;11.60;99.90;;;;;;4957631;28;20166;-72
2022/11/08 03:32:14;;;;;;;12.07;3.42;;;11.50;99.90;;;;;;4948775;28;20442;-74
2022/11/08 03:34:40;;;;;;;8.10;2.00;;;11.60;99.90;;;;;;4933757;29;20047;-74
2022/11/08 03:37:07;;;;;;;8.25;2.03;;;11.60;99.90;;;;;;4951849;29;20051;-73
2022/11/08 03:39:33;;;;;;;10.20;2.63;;;11.60;99.90;;;;;;4951506;28;20518;-74
2022/11/08 03:42:01;;;;;;;6.00;1.90;;;11.60;99.90;;;;;;4949280;28;20043;-75
2022/11/08 03:44:31;;;;;;;8.88;3.95;;;11.50;99.90;;;;;;4965978;28;20541;-73
2022/11/08 03:46:57;;;;;;;4.28;1.77;;;11.50;99.90;;;;;;4958260;28;20063;-74
2022/11/08 03:49:23;;;;;;;16.02;3.97;;;11.50;99.90;;;;;;4940956;28;20051;-73
2022/11/08 03:51:49;;;;;;;14.48;3.38;;;11.50;99.90;;;;;;4944743;28;20375;-74
2022/11/08 03:54:15;;;;;;;4.03;2.38;;;11.50;99.90;;;;;;4944598;28;20149;-74
2022/11/08 03:56:40;;;;;;;6.53;2.28;;;11.40;99.90;;;;;;4932202;29;20130;-73
2022/11/08 03:59:07;;;;;;;9.50;2.10;;;11.40;99.90;;;;;;4950867;29;20041;-73
2022/11/08 04:01:32;;;;;;;9.43;3.15;;;11.30;99.90;;;;;;4950395;28;20079;-75
2022/11/08 04:03:58;;;;;;;11.35;2.13;;;11.30;99.90;;;;;;4964403;28;20086;-74
2022/11/08 04:06:24;;;;;;;8.10;1.85;;;11.30;99.90;;;;;;4949347;28;20058;-74
2022/11/08 04:08:49;;;;;;;11.60;2.67;;;11.20;99.90;;;;;;4931229;28;20106;-73
2022/11/08 04:16:43;;;;;;;14.63;4.20;;;11.10;99.90;;;;;;4947744;28;20055;-72
2022/11/08 04:21:53;;;;;;;9.60;3.35;;;11.10;99.90;;;;;;4960140;28;20161;-73
2022/11/08 04:24:20;;;;;;;8.82;3.13;;;11.20;99.90;;;;;;4933724;28;20046;-73
2022/11/08 04:26:46;;;;;;;7.82;3.33;;;11.10;99.90;;;;;;4948361;28;20039;-73
2022/11/08 04:29:12;;;;;;;6.80;2.88;;;11.10;99.90;;;;;;4959634;28;20091;-73
2022/11/08 04:31:38;;;;;;;7.93;2.38;;;11.20;99.90;;;;;;4928566;29;20047;-74
2022/11/08 04:34:04;;;;;;;11.32;3.47;;;11.00;99.90;;;;;;4958207;28;20051;-73
2022/11/08 04:36:30;;;;;;;9.18;2.95;;;11.10;99.90;;;;;;4944559;28;20375;-73
2022/11/08 04:38:55;;;;;;;11.35;3.45;;;11.10;99.90;;;;;;4944904;28;20043;-74
2022/11/08 04:41:23;;;;;;;10.45;3.90;;;11.00;99.90;;;;;;4944009;28;20063;-74
2022/11/08 04:43:50;;;;;;;13.13;3.28;;;11.00;99.90;;;;;;4943706;28;20047;-74
2022/11/08 04:46:18;;;;;;;10.27;2.40;;;11.20;99.90;;;;;;4959267;28;20078;-73
2022/11/08 04:48:45;;;;;;;11.98;2.88;;;11.00;99.90;;;;;;4911119;28;20151;-75
2022/11/08 04:51:13;;;;;;;17.02;2.28;;;11.10;99.90;;;;;;4927708;29;20051;-73
2022/11/08 04:53:39;;;;;;;8.63;2.97;;;11.00;99.90;;;;;;4943741;28;20066;-73
2022/11/08 04:56:18;;;;;;;7.25;2.47;;;11.10;99.90;;;;;;4925830;28;20130;-75
2022/11/08 04:58:49;;;;;;;9.80;2.67;;;11.10;99.90;;;;;;4943378;28;20512;-73
2022/11/08 05:01:18;;;;;;;8.30;2.85;;;11.10;99.90;;;;;;4926692;28;20039;-72
2022/11/08 05:03:45;;;;;;;18.95;3.92;;;11.10;99.90;;;;;;4942073;28;20063;-74
2022/11/08 05:06:14;;;;;;;5.75;2.38;;;11.00;99.90;;;;;;4943055;28;20047;-75
2022/11/08 05:08:40;;;;;;;12.02;2.70;;;10.90;99.90;;;;;;4914097;29;20075;-73
2022/11/08 05:11:14;;;;;;;18.08;4.32;;;10.90;99.90;;;;;;4962272;28;20079;-72
2022/11/08 05:13:40;;;;;;;8.80;2.78;;;11.00;99.90;;;;;;4943966;28;20058;-74
2022/11/08 05:16:12;;;;;;;5.82;1.98;;;10.80;99.90;;;;;;4950014;28;20122;-74
2022/11/08 05:18:38;;;;;;;6.95;2.70;;;10.90;99.90;;;;;;4948562;28;20139;-76
2022/11/08 05:23:49;;;;;;;14.18;4.05;;;10.70;99.90;;;;;;4928730;28;20044;-76
2022/11/08 05:26:17;;;;;;;5.45;2.35;;;10.70;99.90;;;;;;4929556;29;20059;-73
2022/11/08 05:28:43;;;;;;;14.27;3.80;;;10.70;99.90;;;;;;4948607;28;20055;-74
2022/11/08 05:31:10;;;;;;;8.07;3.63;;;10.70;99.90;;;;;;4958684;28;20042;-74
2022/11/08 05:33:36;;;;;;;8.55;2.60;;;10.60;99.90;;;;;;4948733;28;20042;-73
2022/11/08 05:36:05;;;;;;;8.85;3.00;;;10.50;99.90;;;;;;4948046;28;20051;-72
2022/11/08 05:38:31;;;;;;;8.55;3.30;;;10.60;99.90;;;;;;4938865;28;20118;-74
2022/11/08 05:41:07;;;;;;;3.50;2.03;;;10.50;99.90;;;;;;4930318;29;20055;-74
2022/11/08 05:43:33;;;;;;;9.93;2.30;;;10.60;99.90;;;;;;4923255;29;20052;-73
2022/11/08 05:45:59;;;;;;;6.28;2.58;;;10.60;99.90;;;;;;4931165;28;20053;-72
2022/11/08 05:48:25;;;;;;;6.05;2.33;;;10.50;99.90;;;;;;4949307;28;20075;-73
2022/11/08 05:50:50;;;;;;;5.82;3.08;;;10.70;99.90;;;;;;4954517;28;20522;-73
2022/11/08 05:53:16;;;;;;;6.82;2.83;;;10.50;99.90;;;;;;4962408;28;20130;-72
2022/11/08 05:55:42;;;;;;;7.22;2.35;;;10.50;99.90;;;;;;4946743;28;20043;-73
2022/11/08 05:58:08;;;;;;;9.23;3.45;;;10.50;99.90;;;;;;4946811;28;20122;-72
2022/11/08 06:00:34;;;;;;;11.20;2.83;;;10.50;99.90;;;;;;4950744;28;20494;-73
2022/11/08 06:03:04;;;;;;;9.52;2.60;;;10.50;99.90;;;;;;4930536;29;20054;-73
2022/11/08 06:05:31;;;;;;;5.65;1.85;;;10.60;99.90;;;;;;4961351;28;20058;-73
2022/11/08 06:07:56;;;;;;;8.32;2.08;;;10.60;99.90;;;;;;4948085;28;20594;-72
2022/11/08 06:10:22;;;;;;;10.18;3.63;;;10.50;99.90;;;;;;4947711;28;20105;-72
2022/11/08 06:12:48;;;;;;;8.35;2.08;;;10.50;99.90;;;;;;4962929;28;20127;-72
2022/11/08 06:15:14;;;;;;;11.80;2.65;;;10.70;99.90;;;;;;4961501;28;20083;-73
2022/11/08 06:17:39;;;;;;;8.23;1.70;;;10.70;99.90;;;;;;4948376;28;20039;-73
2022/11/08 06:20:06;;;;;;;8.30;1.90;;;10.60;99.90;;;;;;4930808;29;20058;-73
2022/11/08 06:22:33;;;;;;;10.32;2.13;;;10.60;99.90;;;;;;4955338;28;20382;-73
2022/11/08 06:24:59;;;;;;;11.07;2.97;;;10.60;99.90;;;;;;4961722;28;20050;-72
2022/11/08 06:27:25;;;;;;;4.75;2.50;;;10.70;99.90;;;;;;4945555;28;20048;-73
2022/11/08 06:29:51;;;;;;;4.40;2.08;;;10.70;99.90;;;;;;4930780;29;20058;-73
2022/11/08 06:32:16;;;;;;;6.10;2.25;;;10.60;99.90;;;;;;4945150;28;20047;-72
2022/11/08 06:34:44;;;;;;;4.90;2.15;;;10.70;99.90;;;;;;4929567;29;20340;-72
2022/11/08 06:37:10;;;;;;;8.07;1.98;;;10.80;99.90;;;;;;4952095;28;20042;-72
2022/11/08 06:39:36;;;;;;;4.35;2.05;;;10.80;99.90;;;;;;4948900;28;20043;-72
2022/11/08 06:42:02;;;;;;;5.45;1.80;;;10.80;99.90;;;;;;4931553;29;20467;-73
2022/11/08 06:44:27;;;;;;;7.78;2.30;;;10.70;99.90;;;;;;4949933;28;20069;-73
2022/11/08 06:46:56;;;;;;;6.95;2.03;;;10.80;99.90;;;;;;4950440;28;20106;-73
2022/11/08 06:49:25;;;;;;;7.13;1.98;;;10.80;99.90;;;;;;4964952;28;20150;-72
2022/11/08 06:51:51;;;;;;;5.70;1.88;;;10.90;99.90;;;;;;4921279;28;20486;-72
2022/11/08 06:54:18;;;;;;;5.28;2.35;;;10.90;99.90;;;;;;4934415;29;20043;-73
2022/11/08 06:56:44;;;;;;;8.50;2.78;;;10.90;99.90;;;;;;4949419;28;20145;-74
2022/11/08 06:59:10;;;;;;;8.65;2.75;;;10.90;99.90;;;;;;4933117;29;20035;-74
2022/11/08 07:01:36;;;;;;;6.45;1.90;;;11.00;99.90;;;;;;4965389;28;20061;-72
2022/11/08 07:04:02;;;;;;;11.50;2.47;;;10.90;99.90;;;;;;4963703;28;20498;-74
2022/11/08 07:06:29;;;;;;;13.25;4.43;;;11.00;99.90;;;;;;4936116;29;20102;-72
2022/11/08 07:08:55;;;;;;;10.93;2.92;;;11.00;99.90;;;;;;4958628;28;20047;-76
2022/11/08 07:11:20;;;;;;;6.07;1.75;;;10.90;99.90;;;;;;4916697;29;20042;-74
2022/11/08 07:13:46;;;;;;;9.40;3.22;;;10.90;99.90;;;;;;4950870;28;20043;-75
2022/11/08 07:16:12;;;;;;;6.55;1.65;;;11.00;99.90;;;;;;4932245;29;20438;-74
2022/11/08 07:18:38;;;;;;;5.68;2.25;;;10.90;99.90;;;;;;4950928;28;20055;-73
2022/11/08 07:21:04;;;;;;;10.00;3.05;;;11.00;99.90;;;;;;4949882;28;20443;-73
2022/11/08 07:23:30;;;;;;;4.82;2.25;;;11.00;99.90;;;;;;4965013;28;20054;-73
2022/11/08 07:25:59;;;;;;;7.68;2.47;;;10.90;99.90;;;;;;4947491;28;20520;-73
2022/11/08 07:28:25;;;;;;;6.68;2.45;;;10.90;99.90;;;;;;4946779;28;20062;-73
2022/11/08 07:30:57;;;;;;;5.32;1.63;;;10.90;99.90;;;;;;4961757;28;20454;-73
2022/11/08 07:33:23;;;;;;;12.68;2.55;;;11.00;99.90;;;;;;4942685;28;20152;-74
2022/11/08 07:35:49;;;;;;;4.40;1.55;;;10.90;99.90;;;;;;4951919;28;20484;-73
2022/11/08 07:38:14;;;;;;;6.05;2.33;;;11.00;99.90;;;;;;4931490;28;20106;-72
2022/11/08 07:40:40;;;;;;;4.65;1.77;;;11.10;99.90;;;;;;4946504;28;20047;-73
2022/11/08 07:43:06;;;;;;;5.90;2.03;;;11.00;99.90;;;;;;4949147;28;20400;-73
2022/11/08 07:45:31;;;;;;;5.78;2.28;;;11.00;99.90;;;;;;4961550;28;20051;-73
2022/11/08 07:48:02;;;;;;;6.97;2.60;;;11.10;99.90;;;;;;4946197;28;20339;-74
2022/11/08 07:50:28;;;;;;;6.32;2.47;;;11.10;99.90;;;;;;4954435;28;20394;-74
2022/11/08 07:52:54;;;;;;;4.72;2.42;;;11.10;99.90;;;;;;4960421;28;20188;-73
2022/11/08 07:55:20;;;;;;;8.80;2.47;;;11.20;99.90;;;;;;4948116;28;20081;-74
2022/11/08 07:57:46;;;;;;;7.32;2.67;;;11.20;99.90;;;;;;4927691;29;20450;-72
2022/11/08 08:00:12;;;;;;;10.48;3.13;;;11.20;99.90;;;;;;4963325;28;20121;-72
2022/11/08 08:02:38;;;;;;;7.20;2.08;;;11.30;99.90;;;;;;4960675;28;20048;-73
2022/11/08 08:05:04;;;;;;;6.43;2.33;;;11.30;99.90;;;;;;4947481;28;20054;-74
2022/11/08 08:07:30;;;;;;;9.23;2.83;;;11.30;99.90;;;;;;4913077;29;20098;-72
2022/11/08 08:09:56;;;;;;;10.88;3.22;;;11.30;99.90;;;;;;4948228;28;20051;-75
2022/11/08 08:12:21;;;;;;;5.53;2.22;;;11.40;99.90;;;;;;4943451;28;20106;-73
2022/11/08 08:14:47;;;;;;;8.60;2.65;;;11.30;99.90;;;;;;4949777;28;20402;-72
2022/11/08 08:17:13;;;;;;;8.23;3.03;;;11.30;99.90;;;;;;4943338;28;20601;-74
2022/11/08 08:19:38;;;;;;;8.20;2.88;;;11.40;99.90;;;;;;4943820;28;20039;-72
2022/11/08 08:22:04;;;;;;;7.13;3.28;;;11.40;99.90;;;;;;4925626;28;20098;-72
2022/11/08 08:24:30;;;;;;;7.38;3.17;;;11.40;99.90;;;;;;4915938;29;20031;-74
2022/11/08 08:26:55;;;;;;;6.93;3.05;;;11.40;99.90;;;;;;4960666;28;20047;-73
2022/11/08 08:29:21;;;;;;;4.53;2.92;;;11.50;99.90;;;;;;4944881;28;20419;-73
2022/11/08 08:31:46;;;;;;;15.25;3.53;;;11.50;99.90;;;;;;4948438;28;20054;-73
2022/11/08 08:34:14;;;;;;;9.25;2.67;;;11.60;99.90;;;;;;4947759;28;20047;-74
2022/11/08 08:36:40;;;;;;;8.93;2.70;;;11.60;99.90;;;;;;4926348;29;20047;-73
2022/11/08 08:39:06;;;;;;;8.20;4.50;;;11.70;99.90;;;;;;4913859;28;20470;-74
2022/11/08 08:41:32;;;;;;;6.80;2.70;;;11.70;99.90;;;;;;4944847;28;20101;-75
2022/11/08 08:43:57;;;;;;;6.50;2.60;;;11.80;99.90;;;;;;4946810;28;20062;-72
2022/11/08 08:46:23;;;;;;;8.55;2.50;;;11.80;99.90;;;;;;4945188;28;20040;-74
2022/11/08 08:48:49;;;;;;;5.28;2.60;;;11.90;99.90;;;;;;4962366;28;20442;-75
2022/11/08 08:51:14;;;;;;;9.63;3.92;;;12.00;99.90;;;;;;4928745;29;20050;-73
2022/11/08 08:53:40;;;;;;;13.23;3.15;;;12.00;99.90;;;;;;4941974;28;20105;-73
2022/11/08 08:56:06;;;;;;;6.75;2.38;;;12.20;99.90;;;;;;4960088;28;20049;-73
2022/11/08 08:58:32;;;;;;;9.10;2.38;;;12.30;99.90;;;;;;4946622;28;20035;-73
2022/11/08 09:01:02;;;;;;;9.48;2.85;;;12.30;99.90;;;;;;4929125;29;20043;-72
2022/11/08 09:03:28;;;;;;;;;;;12.50;99.90;;;;;;4949805;28;20058;-73
2022/11/08 09:05:57;;;;;;;5.95;1.77;;;12.50;99.90;;;;;;4948301;28;19926;-73
2022/11/08 09:08:23;;;;;;;7.20;2.33;;;12.60;99.90;;;;;;4912555;28;20152;-74
2022/11/08 09:11:00;;;;;;;5.93;2.45;;;12.60;99.90;;;;;;4946339;28;20101;-72
2022/11/08 09:13:27;;;;;;;6.20;1.70;;;12.60;99.90;;;;;;4946597;29;20047;-72
2022/11/08 09:15:53;;;;;;;4.10;2.33;;;12.70;99.90;;;;;;4930799;28;20070;-73
2022/11/08 09:18:19;;;;;;;4.20;2.22;;;12.70;99.90;;;;;;4949561;28;20113;-73
2022/11/08 09:20:45;;;;;;;3.45;1.70;;;12.80;99.90;;;;;;4960172;28;20047;-73
2022/11/08 09:23:11;;;;;;;5.22;2.03;;;12.80;99.90;;;;;;4947163;29;20050;-72
2022/11/08 09:25:37;;;;;;;4.07;2.47;;;12.80;99.90;;;;;;4945721;28;20035;-73
2022/11/08 09:28:03;;;;;;;4.50;2.35;;;12.80;99.90;;;;;;4961781;28;20043;-72
2022/11/08 09:30:29;;;;;;;9.93;2.25;;;12.80;99.90;;;;;;4945766;28;20047;-72
2022/11/08 09:32:54;;;;;;;4.80;1.90;;;12.70;99.90;;;;;;4960681;28;20533;-72
2022/11/08 09:35:20;;;;;;;7.88;2.85;;;12.80;99.90;;;;;;4962335;28;20055;-73
2022/11/08 09:37:46;;;;;;;4.05;1.67;;;12.80;99.90;;;;;;4928725;28;20059;-73
2022/11/08 09:40:18;;;;;;;4.43;1.50;;;12.80;99.90;;;;;;4958777;28;20054;-73
2022/11/08 09:43:01;;;;;;;2.40;1.40;;;12.80;99.90;;;;;;4948587;28;20064;-73
2022/11/08 09:45:45;;;;;;;4.70;2.70;;;12.80;99.90;;;;;;4964883;28;20050;-71
2022/11/08 09:48:41;;;;;;;2.92;1.35;;;12.80;99.90;;;;;;4945494;29;20542;-72
2022/11/08 09:51:19;;;;;;;4.68;1.98;;;12.80;99.90;;;;;;4912443;29;20442;-72
2022/11/08 09:53:55;;;;;;;3.25;1.40;;;12.80;99.90;;;;;;4929064;29;20050;-72
2022/11/08 09:56:22;;;;;;;4.45;1.63;;;12.80;99.90;;;;;;4926029;29;20055;-72
2022/11/08 09:58:50;;;;;;;4.47;1.85;;;12.80;99.90;;;;;;4947141;28;20421;-72
2022/11/08 10:01:16;;;;;;;4.82;1.40;;;12.80;99.90;;;;;;4947348;28;20043;-71
2022/11/08 10:03:49;;;;;;;5.45;1.48;;;12.80;99.90;;;;;;4946465;28;20367;-71
2022/11/08 10:06:36;;;;;;;3.83;1.33;;;12.80;99.90;;;;;;4943940;28;20063;-72
2022/11/08 10:09:27;;;;;;;3.85;1.20;;;12.90;99.90;;;;;;4960964;28;20047;-72
2022/11/08 10:12:13;;;;;;;4.57;1.50;;;12.90;99.90;;;;;;4958188;28;20062;-72
2022/11/08 10:15:04;;;;;;;5.75;1.63;;;12.90;99.90;;;;;;4944884;28;20058;-72
2022/11/08 10:17:51;;;;;;;3.15;1.73;;;12.90;99.90;;;;;;4954173;28;20405;-71
2022/11/08 10:20:40;;;;;;;4.50;2.50;;;13.00;99.90;;;;;;4964274;28;20458;-71
2022/11/08 10:23:22;;;;;;;3.42;1.40;;;13.00;99.90;;;;;;4950912;29;20441;-72
2022/11/08 10:25:52;;;;;;;5.18;1.58;;;13.00;99.90;;;;;;4947636;28;20513;-72
2022/11/08 10:28:23;;;;;;;3.70;1.65;;;13.00;99.90;;;;;;4951472;29;20161;-73
2022/11/08 10:30:51;;;;;;;3.88;2.28;;;12.90;99.90;;;;;;4946178;28;20090;-72
2022/11/08 10:33:31;;;;;;;8.52;2.72;;;12.90;99.90;;;;;;4930050;29;20054;-73
2022/11/08 10:36:12;;;;;;;4.43;2.35;;;12.80;99.90;;;;;;4932753;28;20132;-73
2022/11/08 10:39:03;;;;;;;4.50;2.45;;;12.80;99.90;;;;;;4948188;28;20131;-74
2022/11/08 10:41:53;;;;;;;5.82;1.85;;;12.80;99.90;;;;;;4910072;29;20414;-73
2022/11/08 10:44:23;;;;;;;5.20;1.65;;;12.80;99.90;;;;;;4933054;29;20086;-74
2022/11/08 10:46:54;;;;;;;6.88;1.83;;;12.90;99.90;;;;;;4967598;28;20362;-74
2022/11/08 10:49:29;;;;;;;5.63;1.95;;;12.90;99.90;;;;;;4969876;28;20275;-74
2022/11/08 10:52:00;;;;;;;6.63;2.30;;;13.00;99.90;;;;;;4969361;28;20051;-73
2022/11/08 10:54:46;;;;;;;3.50;1.60;;;13.00;99.90;;;;;;4952079;28;20141;-73
2022/11/08 10:57:30;;;;;;;5.45;1.52;;;13.10;99.90;;;;;;4932054;29;20062;-73
2022/11/08 10:59:56;;;;;;;5.70;2.88;;;13.10;99.90;;;;;;4954994;28;20093;-73
2022/11/08 11:02:24;;;;;;;4.85;1.90;;;13.20;99.90;;;;;;4969665;28;20105;-73
2022/11/08 11:04:51;;;;;;;7.32;1.13;;;13.20;99.90;;;;;;4969307;28;20107;-73
2022/11/08 11:07:33;;;;;;;5.00;1.67;;;13.20;99.90;;;;;;4962307;28;20120;-74
2022/11/08 11:10:23;;;;;;;4.20;2.08;;;13.30;99.90;;;;;;4949810;28;20046;-74
2022/11/08 11:13:00;;;;;;;5.15;1.88;;;13.30;99.90;;;;;;4967694;28;20054;-73
2022/11/08 11:15:34;;;;;;;4.70;1.92;;;13.40;99.90;;;;;;4965264;28;20055;-73
2022/11/08 11:18:01;;;;;;;5.18;1.35;;;13.50;99.90;;;;;;4934651;29;20043;-73
2022/11/08 11:20:27;;;;;;;4.95;2.28;;;13.50;99.90;;;;;;4949662;29;20051;-74
2022/11/08 11:22:53;;;;;;;6.60;1.33;;;13.60;99.90;;;;;;4961714;28;20062;-73
2022/11/08 11:25:22;;;;;;;6.75;2.28;;;13.60;99.90;;;;;;4930940;28;20082;-73
2022/11/08 11:27:59;;;;;;;4.03;1.80;;;13.70;99.90;;;;;;4963560;28;20392;-74
2022/11/08 11:30:29;;;;;;;3.33;1.42;;;13.60;99.90;;;;;;4949810;29;20134;-73
2022/11/08 11:33:24;;;;;;;2.78;1.33;;;13.60;99.90;;;;;;4931612;29;20055;-74
2022/11/08 11:36:03;;;;;;;4.80;1.77;;;13.70;99.90;;;;;;4947906;28;20086;-73
2022/11/08 11:38:35;;;;;;;5.63;1.52;;;13.70;99.90;;;;;;4931854;29;20079;-76
2022/11/08 11:41:08;;;;;;;5.65;1.70;;;13.70;99.90;;;;;;4963612;28;20366;-78
2022/11/08 11:44:07;;;;;;;4.55;1.20;;;13.80;99.90;;;;;;4932680;29;20043;-76
2022/11/08 11:46:52;;;;;;;4.38;1.55;;;13.80;99.90;;;;;;4938003;28;20382;-77
2022/11/08 11:49:20;;;;;;;3.22;1.70;;;13.80;99.90;;;;;;4965182;28;20039;-75
2022/11/08 11:51:46;;;;;;;7.53;1.55;;;13.90;99.90;;;;;;4930445;28;20071;-77
2022/11/08 11:54:14;;;;;;;2.65;1.40;;;13.90;99.90;;;;;;4964173;28;20047;-74
2022/11/08 11:56:57;;;;;;;4.70;1.58;;;13.90;99.90;;;;;;4946602;29;20062;-76
2022/11/08 11:59:50;;;;;;;3.20;1.27;;;13.90;99.90;;;;;;4949171;29;20126;-76
2022/11/08 12:02:30;;;;;;;6.43;2.03;;;13.90;99.90;;;;;;4931531;29;20039;-74
2022/11/08 12:05:27;;;;;;;5.55;1.55;;;13.90;99.90;;;;;;4943207;28;20163;-75
2022/11/08 12:08:17;;;;;;;2.35;1.23;;;14.00;99.90;;;;;;4958845;28;20059;-74
2022/11/08 12:10:48;;;;;;;4.45;1.55;;;14.00;99.90;;;;;;4949904;28;20045;-74
2022/11/08 12:13:37;;;;;;;3.83;1.95;;;14.00;99.90;;;;;;4950616;28;20556;-73
2022/11/08 12:16:22;;;;;;;4.55;1.65;;;14.10;99.90;;;;;;4968584;28;20082;-73
2022/11/08 12:18:54;;;;;;;2.47;1.13;;;14.10;99.90;;;;;;4950713;28;20050;-72
2022/11/08 12:21:36;;;;;;;3.30;1.35;;;14.10;99.90;;;;;;4962660;28;20094;-74
2022/11/08 12:24:26;;;;;;;4.25;1.95;;;14.20;99.90;;;;;;4963075;28;20051;-73
2022/11/08 12:27:03;;;;;;;5.22;1.38;;;14.30;99.90;;;;;;4937680;29;20059;-75
2022/11/08 12:30:10;;;;;;;4.63;1.38;;;14.30;99.90;;;;;;4963442;28;20191;-74
2022/11/08 12:32:47;;;;;;;2.60;1.17;;;14.50;99.90;;;;;;4876801;29;20076;-74
2022/11/08 12:35:24;;;;;;;5.45;1.10;;;14.50;99.90;;;;;;4927319;29;20059;-74
2022/11/08 12:38:14;;;;;;;4.50;2.50;;;14.50;99.90;;;;;;4948655;29;20045;-73
2022/11/08 12:41:07;;;;;;;5.05;1.45;;;14.60;99.90;;;;;;4952225;28;20054;-73
2022/11/08 12:44:18;;;;;;;3.65;1.45;;;14.70;99.90;;;;;;4964266;28;20122;-73
2022/11/08 12:47:04;;;;;;;;;;;14.70;99.90;;;;;;4937172;28;20047;-75
2022/11/08 12:49:46;;;;;;;5.65;1.60;;;14.70;99.90;;;;;;4920837;29;19922;-75
2022/11/08 12:52:21;;;;;;;2.88;0.98;;;14.70;99.90;;;;;;4930085;29;20054;-74
2022/11/08 12:54:56;;;;;;;8.15;1.63;;;14.80;99.90;;;;;;4960953;28;20093;-74
2022/11/08 12:57:26;;;;;;;2.95;1.17;;;14.80;99.90;;;;;;4948237;28;20070;-75
2022/11/08 13:00:13;;;;;;;2.90;1.00;;;14.90;99.90;;;;;;4962533;28;20054;-74
2022/11/08 13:02:40;;;;;;;10.07;1.67;;;14.90;99.90;;;;;;4931100;29;20063;-74
2022/11/08 13:05:16;;;;;;;4.35;1.33;;;14.90;99.90;;;;;;4945682;28;20047;-73
2022/11/08 13:07:59;;;;;;;3.47;1.45;;;15.00;99.90;;;;;;4946553;28;20085;-74
2022/11/08 13:10:37;;;;;;;4.32;2.17;;;15.00;99.90;;;;;;4957641;28;20043;-74
2022/11/08 13:13:31;;;;;;;4.20;1.40;;;15.00;99.90;;;;;;4919381;29;20577;-74
2022/11/08 13:16:17;;;;;;;3.95;1.60;;;15.00;99.90;;;;;;4950327;28;20397;-74
2022/11/08 13:18:44;;;;;;;3.95;1.75;;;15.10;99.90;;;;;;4961649;28;20043;-74
2022/11/08 13:21:28;;;;;;;3.03;0.85;;;15.00;99.90;;;;;;4961546;28;20062;-74